Time;durP1;ratioP1;P1;durP2;ratioP2;P2;SDS_P1;SDS_P2;PMS_P1;PMS_P2;Temp;Humidity;BMP_temperature;BMP_pressure;BME280_temperature;BME280_humidity;BME280_pressure;Samples;Min_cycle;Max_cycle;Signal;HPM_P1;HPM_P2
2021/03/31 00:07:40;;;;;;;5.68;2.70;;;;;;;;;;4228031;28;20140;-49
2021/03/31 00:10:42;;;;;;;5.03;3.20;;;;;;;;;;4190434;34;20568;-50
2021/03/31 00:13:08;;;;;;;5.55;3.03;;;;;;;;;;4169519;34;20113;-45
2021/03/31 00:15:34;;;;;;;3.55;3.00;;;;;;;;;;4177264;34;20118;-51
2021/03/31 00:18:00;;;;;;;8.68;3.17;;;;;;;;;;4177187;34;20114;-48
2021/03/31 00:20:26;;;;;;;5.32;2.83;;;;;;;;;;4166170;34;20101;-52
2021/03/31 00:22:52;;;;;;;3.78;2.67;;;;;;;;;;4179172;34;20174;-48
2021/03/31 00:25:20;;;;;;;5.35;2.47;;;;;;;;;;4166475;34;20114;-45
2021/03/31 00:27:46;;;;;;;2.90;2.12;;;;;;;;;;4178904;34;20597;-48
2021/03/31 00:30:15;;;;;;;3.03;2.40;;;;;;;;;;4179032;34;20190;-49
2021/03/31 00:32:44;;;;;;;4.25;2.80;;;;;;;;;;4166052;34;20195;-48
2021/03/31 00:35:11;;;;;;;2.87;2.40;;;;;;;;;;4178943;34;20202;-48
2021/03/31 00:37:40;;;;;;;3.20;2.42;;;;;;;;;;4179005;34;20450;-49
2021/03/31 00:40:09;;;;;;;3.15;2.40;;;;;;;;;;4178920;34;20146;-48
2021/03/31 00:42:34;;;;;;;4.05;2.55;;;;;;;;;;4166466;34;20310;-49
2021/03/31 00:45:01;;;;;;;3.20;2.28;;;;;;;;;;4178723;34;20126;-46
2021/03/31 00:47:27;;;;;;;3.20;2.45;;;;;;;;;;4178988;34;20215;-48
2021/03/31 00:49:53;;;;;;;4.43;2.30;;;;;;;;;;4178603;34;20249;-49
2021/03/31 00:52:19;;;;;;;5.12;2.92;;;;;;;;;;4178583;34;20527;-48
2021/03/31 00:54:45;;;;;;;4.75;2.58;;;;;;;;;;4154643;34;20189;-51
2021/03/31 00:57:11;;;;;;;2.90;2.30;;;;;;;;;;4154604;34;20207;-47
2021/03/31 00:59:37;;;;;;;2.87;2.58;;;;;;;;;;4178581;34;20556;-46
2021/03/31 01:02:03;;;;;;;5.82;2.78;;;;;;;;;;4178450;34;20218;-47
2021/03/31 01:04:29;;;;;;;4.25;2.50;;;;;;;;;;4178496;34;20450;-47
2021/03/31 01:06:55;;;;;;;7.12;2.72;;;;;;;;;;4178237;34;20114;-48
2021/03/31 01:09:22;;;;;;;8.18;2.67;;;;;;;;;;4178665;34;20098;-48
2021/03/31 01:12:02;;;;;;;6.05;2.70;;;;;;;;;;4165999;34;20125;-49
2021/03/31 01:14:32;;;;;;;3.17;2.40;;;;;;;;;;4178332;34;20603;-49
2021/03/31 01:17:02;;;;;;;5.72;3.37;;;;;;;;;;4178569;34;20121;-45
2021/03/31 01:19:34;;;;;;;5.45;2.40;;;;;;;;;;4157899;34;20099;-47
2021/03/31 01:22:41;;;;;;;4.53;2.47;;;;;;;;;;4191708;34;20229;-49
2021/03/31 01:25:36;;;;;;;4.78;2.72;;;;;;;;;;4149125;34;20103;-42
2021/03/31 01:28:12;;;;;;;5.28;2.60;;;;;;;;;;4147048;34;20227;-47
2021/03/31 01:31:02;;;;;;;5.43;2.40;;;;;;;;;;4169959;34;20569;-43
2021/03/31 01:33:59;;;;;;;3.42;2.45;;;;;;;;;;4191960;34;20582;-45
2021/03/31 01:36:26;;;;;;;6.55;2.47;;;;;;;;;;4179132;34;20189;-44
2021/03/31 01:38:53;;;;;;;5.20;2.58;;;;;;;;;;4179352;34;20189;-44
2021/03/31 01:41:20;;;;;;;3.92;2.65;;;;;;;;;;4167910;34;20125;-43
2021/03/31 01:43:51;;;;;;;8.45;2.83;;;;;;;;;;4192171;34;20094;-44
2021/03/31 01:46:19;;;;;;;7.97;2.75;;;;;;;;;;4168086;34;20602;-45
2021/03/31 01:48:45;;;;;;;4.78;2.83;;;;;;;;;;4179389;34;20126;-43
2021/03/31 01:51:11;;;;;;;7.43;3.12;;;;;;;;;;4179151;34;20121;-44
2021/03/31 01:53:37;;;;;;;10.43;2.67;;;;;;;;;;4161819;34;20203;-43
2021/03/31 01:56:03;;;;;;;5.00;2.87;;;;;;;;;;4151966;34;20138;-45
2021/03/31 01:58:30;;;;;;;4.05;2.33;;;;;;;;;;4152069;34;20130;-47
2021/03/31 02:00:56;;;;;;;9.98;2.97;;;;;;;;;;4152133;34;20610;-48
2021/03/31 02:03:22;;;;;;;6.35;2.65;;;;;;;;;;4151982;34;20206;-47
2021/03/31 02:05:53;;;;;;;3.12;2.47;;;;;;;;;;4151459;34;20126;-47
2021/03/31 02:08:23;;;;;;;4.45;3.00;;;;;;;;;;4141251;34;20110;-48
2021/03/31 02:10:51;;;;;;;6.12;3.03;;;;;;;;;;4164168;34;20297;-47
2021/03/31 02:13:17;;;;;;;6.10;2.92;;;;;;;;;;4151955;34;20280;-49
2021/03/31 02:15:43;;;;;;;5.72;2.58;;;;;;;;;;4151655;34;20119;-46
2021/03/31 02:18:14;;;;;;;6.00;2.80;;;;;;;;;;4151720;34;20138;-47
2021/03/31 02:20:40;;;;;;;9.38;2.62;;;;;;;;;;4167996;34;20102;-48
2021/03/31 02:23:06;;;;;;;3.70;1.17;;;;;;;;;;4191634;34;20103;-49
2021/03/31 02:25:32;;;;;;;4.22;1.92;;;;;;;;;;4191596;34;20113;-47
2021/03/31 02:28:01;;;;;;;2.95;1.90;;;;;;;;;;4167682;34;20120;-47
2021/03/31 02:30:28;;;;;;;2.60;1.50;;;;;;;;;;4167693;34;20110;-47
2021/03/31 02:32:57;;;;;;;1.23;1.17;;;;;;;;;;4166794;34;20113;-44
2021/03/31 02:35:26;;;;;;;5.80;2.70;;;;;;;;;;4178491;34;20095;-50
2021/03/31 02:38:04;;;;;;;12.10;2.85;;;;;;;;;;4178755;34;20213;-46
2021/03/31 02:40:31;;;;;;;8.32;3.30;;;;;;;;;;4168394;34;20121;-44
2021/03/31 02:42:58;;;;;;;6.45;3.10;;;;;;;;;;4156450;34;20515;-46
2021/03/31 02:45:25;;;;;;;5.90;2.70;;;;;;;;;;4178748;34;20134;-46
2021/03/31 02:47:51;;;;;;;9.18;2.92;;;;;;;;;;4178785;34;20125;-50
2021/03/31 02:50:20;;;;;;;12.90;3.00;;;;;;;;;;4191546;34;20168;-49
2021/03/31 02:53:40;;;;;;;;;;;;;;;;;;3835099;37;20122;-49
2021/03/31 02:56:09;;;;;;;5.43;2.80;;;;;;;;;;4388462;32;20069;-51
2021/03/31 02:58:42;;;;;;;5.65;2.90;;;;;;;;;;4375903;32;20590;-47
2021/03/31 03:01:11;;;;;;;4.40;2.83;;;;;;;;;;4388524;32;20198;-51
2021/03/31 03:03:39;;;;;;;6.22;3.17;;;;;;;;;;4389993;32;20112;-49
2021/03/31 03:06:05;;;;;;;9.30;3.10;;;;;;;;;;4375905;32;20099;-49
2021/03/31 03:08:32;;;;;;;7.28;3.03;;;;;;;;;;4389671;32;20109;-50
2021/03/31 03:10:59;;;;;;;9.50;2.92;;;;;;;;;;4389919;32;20101;-48
2021/03/31 03:13:27;;;;;;;10.18;3.45;;;;;;;;;;4388343;32;20144;-48
2021/03/31 03:15:55;;;;;;;9.13;3.00;;;;;;;;;;4376136;32;20098;-49
2021/03/31 03:18:22;;;;;;;6.32;3.00;;;;;;;;;;4388653;32;20439;-48
2021/03/31 03:20:49;;;;;;;8.40;3.08;;;;;;;;;;4385398;32;20094;-50
2021/03/31 03:23:16;;;;;;;8.35;2.78;;;;;;;;;;4373045;32;20199;-51
2021/03/31 03:25:42;;;;;;;15.88;3.97;;;;;;;;;;4360913;32;20094;-47
2021/03/31 03:28:09;;;;;;;12.45;4.03;;;;;;;;;;4373224;32;20118;-49
2021/03/31 03:30:36;;;;;;;13.68;3.20;;;;;;;;;;4373312;32;20118;-48
2021/03/31 03:33:03;;;;;;;11.20;3.10;;;;;;;;;;4348306;32;20110;-50
2021/03/31 03:35:30;;;;;;;12.23;2.97;;;;;;;;;;4373090;32;20122;-50
2021/03/31 03:37:57;;;;;;;5.82;3.03;;;;;;;;;;4373182;32;20219;-47
2021/03/31 03:40:26;;;;;;;8.43;3.20;;;;;;;;;;4374492;32;20106;-47
2021/03/31 03:42:58;;;;;;;6.90;3.35;;;;;;;;;;4374724;32;20133;-47
2021/03/31 03:45:26;;;;;;;15.68;3.70;;;;;;;;;;4372902;32;20098;-48
2021/03/31 03:47:53;;;;;;;10.85;3.30;;;;;;;;;;4374455;32;20189;-48
2021/03/31 03:50:19;;;;;;;14.15;3.33;;;;;;;;;;4372769;32;20113;-51
2021/03/31 03:52:49;;;;;;;6.80;3.05;;;;;;;;;;4372457;32;20437;-48
2021/03/31 03:55:20;;;;;;;11.23;3.12;;;;;;;;;;4374542;32;20541;-46
2021/03/31 03:57:46;;;;;;;10.13;3.25;;;;;;;;;;4372949;32;20121;-44
2021/03/31 04:00:18;;;;;;;8.30;3.20;;;;;;;;;;4374209;32;20114;-46
2021/03/31 04:02:44;;;;;;;10.18;2.87;;;;;;;;;;4373741;32;20114;-46
2021/03/31 04:05:11;;;;;;;6.55;3.30;;;;;;;;;;4362536;32;20125;-45
2021/03/31 04:07:37;;;;;;;22.40;3.87;;;;;;;;;;4364037;32;20443;-44
2021/03/31 04:10:04;;;;;;;10.43;4.18;;;;;;;;;;4364093;32;20094;-49
2021/03/31 04:12:32;;;;;;;9.68;2.90;;;;;;;;;;4363962;32;20196;-47
2021/03/31 04:14:58;;;;;;;10.88;3.95;;;;;;;;;;4350486;32;20118;-48
2021/03/31 04:17:24;;;;;;;6.90;2.92;;;;;;;;;;4350201;32;20125;-49
2021/03/31 04:19:51;;;;;;;11.88;3.50;;;;;;;;;;4362669;32;20098;-44
2021/03/31 04:22:19;;;;;;;13.05;2.90;;;;;;;;;;4363705;32;20094;-45
2021/03/31 04:24:49;;;;;;;5.00;2.90;;;;;;;;;;4362526;32;20110;-47
2021/03/31 04:27:18;;;;;;;7.87;3.08;;;;;;;;;;4362480;32;20124;-43
2021/03/31 04:29:44;;;;;;;8.45;3.40;;;;;;;;;;4364000;32;20121;-46
2021/03/31 04:32:17;;;;;;;9.13;3.15;;;;;;;;;;4362457;32;20136;-52
2021/03/31 04:34:54;;;;;;;10.00;3.25;;;;;;;;;;4362680;32;20138;-49
2021/03/31 04:37:21;;;;;;;4.55;2.90;;;;;;;;;;4362504;32;20189;-49
2021/03/31 04:39:48;;;;;;;12.23;3.45;;;;;;;;;;4363904;32;20095;-44
2021/03/31 04:42:14;;;;;;;4.78;3.03;;;;;;;;;;4350275;32;20109;-46
2021/03/31 04:44:40;;;;;;;5.50;2.87;;;;;;;;;;4364226;32;20661;-49
2021/03/31 04:47:07;;;;;;;7.12;3.25;;;;;;;;;;4364109;32;20140;-49
2021/03/31 04:49:36;;;;;;;13.52;3.50;;;;;;;;;;4363878;32;20093;-48
2021/03/31 04:52:02;;;;;;;7.53;2.92;;;;;;;;;;4363301;32;20216;-47
2021/03/31 04:54:29;;;;;;;12.35;3.60;;;;;;;;;;4363755;32;20182;-47
2021/03/31 04:56:56;;;;;;;7.57;3.03;;;;;;;;;;4363925;32;20767;-47
2021/03/31 04:59:22;;;;;;;8.02;2.67;;;;;;;;;;4363930;32;20109;-48
2021/03/31 05:01:49;;;;;;;12.63;3.15;;;;;;;;;;4363755;32;20106;-47
2021/03/31 05:04:15;;;;;;;5.45;3.05;;;;;;;;;;4363608;32;20106;-48
2021/03/31 05:06:42;;;;;;;5.78;2.70;;;;;;;;;;4363741;32;20101;-46
2021/03/31 05:09:10;;;;;;;6.05;3.37;;;;;;;;;;4362327;32;20528;-47
2021/03/31 05:11:37;;;;;;;7.25;2.85;;;;;;;;;;4363521;32;20132;-45
2021/03/31 05:14:05;;;;;;;12.48;2.80;;;;;;;;;;4363748;32;20086;-45
2021/03/31 05:16:32;;;;;;;5.12;3.08;;;;;;;;;;4362614;32;20161;-45
2021/03/31 05:18:58;;;;;;;12.27;4.50;;;;;;;;;;4363692;32;20102;-46
2021/03/31 05:21:25;;;;;;;6.25;2.65;;;;;;;;;;4363627;32;20628;-51
2021/03/31 05:23:51;;;;;;;4.22;3.00;;;;;;;;;;4363705;32;20117;-49
2021/03/31 05:26:18;;;;;;;6.28;2.90;;;;;;;;;;4363678;32;20094;-49
2021/03/31 05:28:45;;;;;;;4.80;2.65;;;;;;;;;;4362057;32;20668;-49
2021/03/31 05:31:13;;;;;;;8.95;2.83;;;;;;;;;;4363215;32;20527;-50
2021/03/31 05:33:41;;;;;;;9.57;3.20;;;;;;;;;;4363395;32;20121;-50
2021/03/31 05:36:13;;;;;;;9.07;2.92;;;;;;;;;;4362133;32;20101;-50
2021/03/31 05:38:41;;;;;;;16.95;4.18;;;;;;;;;;4362159;32;20199;-50
2021/03/31 05:41:07;;;;;;;11.93;3.25;;;;;;;;;;4363485;32;20086;-49
2021/03/31 05:43:35;;;;;;;8.55;2.75;;;;;;;;;;4361912;32;20152;-49
2021/03/31 05:46:01;;;;;;;7.65;2.70;;;;;;;;;;4363418;32;20113;-51
2021/03/31 05:48:28;;;;;;;9.88;2.60;;;;;;;;;;4361659;32;20096;-49
2021/03/31 05:50:54;;;;;;;9.93;2.70;;;;;;;;;;4362001;32;20192;-49
2021/03/31 05:53:20;;;;;;;10.15;3.37;;;;;;;;;;4361599;32;20510;-49
2021/03/31 05:55:46;;;;;;;10.73;3.17;;;;;;;;;;4361679;32;20121;-45
2021/03/31 05:58:12;;;;;;;7.07;2.83;;;;;;;;;;4363207;32;20121;-46
2021/03/31 06:00:39;;;;;;;4.03;2.67;;;;;;;;;;4349430;32;20181;-45
2021/03/31 06:03:08;;;;;;;26.62;3.72;;;;;;;;;;4349209;32;20178;-46
2021/03/31 06:05:39;;;;;;;9.45;3.67;;;;;;;;;;4361474;32;20133;-45
2021/03/31 06:08:05;;;;;;;8.63;3.03;;;;;;;;;;4361465;32;20125;-45
2021/03/31 06:10:32;;;;;;;6.00;2.80;;;;;;;;;;4363198;32;20098;-48
2021/03/31 06:13:04;;;;;;;6.47;3.10;;;;;;;;;;4361589;32;20114;-48
2021/03/31 06:15:42;;;;;;;10.00;2.87;;;;;;;;;;4361520;32;20087;-46
2021/03/31 06:18:08;;;;;;;6.37;3.28;;;;;;;;;;4361356;32;20141;-46
2021/03/31 06:20:45;;;;;;;8.55;2.65;;;;;;;;;;4363318;32;20584;-48
2021/03/31 06:26:29;;;;;;;11.00;4.32;;;;;;;;;;4362392;32;20120;-48
2021/03/31 06:29:05;;;;;;;8.57;3.87;;;;;;;;;;4363055;32;20097;-51
2021/03/31 06:31:37;;;;;;;4.53;2.50;;;;;;;;;;4361230;32;20215;-50
2021/03/31 06:34:07;;;;;;;8.23;2.65;;;;;;;;;;4361562;32;20275;-51
2021/03/31 06:36:40;;;;;;;7.60;3.00;;;;;;;;;;4361454;32;20090;-50
2021/03/31 06:39:26;;;;;;;9.40;3.30;;;;;;;;;;4349283;32;20493;-49
2021/03/31 06:42:08;;;;;;;7.93;3.22;;;;;;;;;;4361539;32;20767;-48
2021/03/31 06:45:04;;;;;;;4.75;2.87;;;;;;;;;;4362919;32;20101;-50
2021/03/31 06:50:01;;;;;;;8.02;3.03;;;;;;;;;;4362913;32;20509;-48
2021/03/31 06:52:30;;;;;;;10.27;3.67;;;;;;;;;;4362413;32;20191;-49
2021/03/31 06:55:01;;;;;;;5.30;3.35;;;;;;;;;;4362879;32;20185;-50
2021/03/31 06:57:36;;;;;;;5.35;3.58;;;;;;;;;;4361090;32;20109;-50
2021/03/31 07:00:11;;;;;;;9.15;3.78;;;;;;;;;;4362862;32;20258;-50
2021/03/31 07:02:41;;;;;;;7.67;3.80;;;;;;;;;;4360832;32;20102;-51
2021/03/31 07:05:08;;;;;;;11.90;4.62;;;;;;;;;;4361032;32;20147;-45
2021/03/31 07:07:35;;;;;;;7.03;3.83;;;;;;;;;;4362374;32;20457;-47
2021/03/31 07:10:06;;;;;;;7.85;3.55;;;;;;;;;;4362605;32;20539;-46
2021/03/31 07:12:54;;;;;;;8.23;3.60;;;;;;;;;;4362380;32;20207;-48
2021/03/31 07:15:24;;;;;;;4.97;3.50;;;;;;;;;;4362470;32;20215;-47
2021/03/31 07:17:55;;;;;;;9.52;3.80;;;;;;;;;;4361229;32;20110;-46
2021/03/31 07:20:30;;;;;;;8.15;3.53;;;;;;;;;;4360732;32;20095;-45
2021/03/31 07:23:01;;;;;;;10.90;3.80;;;;;;;;;;4362193;32;20163;-47
2021/03/31 07:25:27;;;;;;;6.93;3.55;;;;;;;;;;4348709;32;20142;-49
2021/03/31 07:27:55;;;;;;;7.43;3.33;;;;;;;;;;4360916;32;20106;-48
2021/03/31 07:30:24;;;;;;;10.60;3.78;;;;;;;;;;4362298;32;20193;-45
2021/03/31 07:32:56;;;;;;;6.30;4.12;;;;;;;;;;4362018;32;20130;-46
2021/03/31 07:35:25;;;;;;;8.57;4.28;;;;;;;;;;4360867;32;20110;-48
2021/03/31 07:37:52;;;;;;;10.18;6.10;;;;;;;;;;4362046;32;20548;-46
2021/03/31 07:40:20;;;;;;;6.97;4.50;;;;;;;;;;4362977;32;20133;-46
2021/03/31 07:43:28;;;;;;;14.95;5.18;;;;;;;;;;4364683;32;20204;-45
2021/03/31 07:46:11;;;;;;;11.88;5.25;;;;;;;;;;4364512;32;20117;-47
2021/03/31 07:48:38;;;;;;;6.12;4.43;;;;;;;;;;4364611;32;20125;-46
2021/03/31 07:51:21;;;;;;;13.13;5.07;;;;;;;;;;4362844;32;20184;-45
2021/03/31 07:53:49;;;;;;;7.60;4.25;;;;;;;;;;4364438;32;20121;-47
2021/03/31 07:56:17;;;;;;;14.23;6.40;;;;;;;;;;4362834;32;20212;-45
2021/03/31 07:59:07;;;;;;;9.68;6.43;;;;;;;;;;4364350;32;20128;-46
2021/03/31 08:01:59;;;;;;;19.87;7.60;;;;;;;;;;4362991;32;20101;-46
2021/03/31 08:04:26;;;;;;;16.50;6.53;;;;;;;;;;4364570;32;20169;-45
2021/03/31 08:06:56;;;;;;;9.10;4.97;;;;;;;;;;4362774;32;20109;-46
2021/03/31 08:09:29;;;;;;;13.88;6.68;;;;;;;;;;4364261;32;20208;-46
2021/03/31 08:12:07;;;;;;;13.35;6.45;;;;;;;;;;4364086;32;20102;-49
2021/03/31 08:14:35;;;;;;;10.35;5.75;;;;;;;;;;4364185;32;20091;-47
2021/03/31 08:17:03;;;;;;;8.55;5.60;;;;;;;;;;4362639;32;20094;-49
2021/03/31 08:19:32;;;;;;;14.65;5.90;;;;;;;;;;4364006;32;20527;-50
2021/03/31 08:22:17;;;;;;;12.25;5.40;;;;;;;;;;4364037;32;20089;-49
2021/03/31 08:24:45;;;;;;;5.90;3.97;;;;;;;;;;4362737;32;20103;-48
2021/03/31 08:27:13;;;;;;;10.20;5.03;;;;;;;;;;4363809;32;20109;-47
2021/03/31 08:29:42;;;;;;;9.10;4.90;;;;;;;;;;4362473;32;20106;-46
2021/03/31 08:32:10;;;;;;;5.90;4.62;;;;;;;;;;4363788;32;20107;-50
2021/03/31 08:34:38;;;;;;;10.68;4.55;;;;;;;;;;4362544;32;20102;-47
2021/03/31 08:37:17;;;;;;;11.38;6.20;;;;;;;;;;4362216;32;20103;-48
2021/03/31 08:39:44;;;;;;;7.15;5.35;;;;;;;;;;4362809;32;20207;-52
2021/03/31 08:42:10;;;;;;;12.52;5.68;;;;;;;;;;4362082;32;20222;-50
2021/03/31 08:44:39;;;;;;;7.12;3.92;;;;;;;;;;4363727;32;20220;-45
2021/03/31 08:47:15;;;;;;;12.02;5.45;;;;;;;;;;4362384;32;20094;-45
2021/03/31 08:49:44;;;;;;;12.95;5.75;;;;;;;;;;4363503;32;20533;-49
2021/03/31 08:52:14;;;;;;;9.40;6.12;;;;;;;;;;4363462;32;20202;-46
2021/03/31 08:54:48;;;;;;;14.45;6.40;;;;;;;;;;4362175;32;20097;-46
2021/03/31 08:57:22;;;;;;;17.25;9.23;;;;;;;;;;4363443;32;20539;-46
2021/03/31 08:59:51;;;;;;;9.90;6.03;;;;;;;;;;4363831;32;20271;-48
2021/03/31 09:02:21;;;;;;;12.37;5.62;;;;;;;;;;4363325;32;20128;-45
2021/03/31 09:04:53;;;;;;;8.98;4.53;;;;;;;;;;4363758;32;20183;-46
2021/03/31 09:07:20;;;;;;;11.57;5.87;;;;;;;;;;4363331;32;20121;-47
2021/03/31 09:09:47;;;;;;;10.73;5.35;;;;;;;;;;4363380;32;20140;-48
2021/03/31 09:12:18;;;;;;;11.35;5.95;;;;;;;;;;4363364;32;20282;-48
2021/03/31 09:14:46;;;;;;;10.20;5.40;;;;;;;;;;4363619;32;20126;-48
2021/03/31 09:17:17;;;;;;;16.10;6.57;;;;;;;;;;4361848;32;20105;-59
2021/03/31 09:19:43;;;;;;;6.87;5.05;;;;;;;;;;4363698;32;20122;-51
2021/03/31 09:22:11;;;;;;;5.57;4.10;;;;;;;;;;4363598;32;20486;-48
2021/03/31 09:24:47;;;;;;;12.63;5.68;;;;;;;;;;4367110;32;20110;-52
2021/03/31 09:27:17;;;;;;;8.32;4.25;;;;;;;;;;4373129;32;20102;-51
2021/03/31 09:29:44;;;;;;;17.73;5.20;;;;;;;;;;4366459;32;20082;-47
2021/03/31 09:32:16;;;;;;;7.03;4.47;;;;;;;;;;4363852;32;20105;-48
2021/03/31 09:34:44;;;;;;;4.47;3.25;;;;;;;;;;4378596;32;20117;-51
2021/03/31 09:37:20;;;;;;;4.90;3.05;;;;;;;;;;4378245;32;20129;-48
2021/03/31 09:39:52;;;;;;;7.40;4.78;;;;;;;;;;4377103;32;20147;-49
2021/03/31 09:42:22;;;;;;;11.25;5.03;;;;;;;;;;4367363;32;20161;-49
2021/03/31 09:44:49;;;;;;;10.70;4.40;;;;;;;;;;4363576;32;20195;-50
2021/03/31 09:47:16;;;;;;;6.10;3.72;;;;;;;;;;4361644;32;20505;-46
2021/03/31 09:49:43;;;;;;;6.95;3.78;;;;;;;;;;4363107;32;20085;-47
2021/03/31 09:52:11;;;;;;;11.77;4.40;;;;;;;;;;4361242;32;20110;-45
2021/03/31 09:54:40;;;;;;;7.50;3.95;;;;;;;;;;4363146;32;20598;-48
2021/03/31 09:57:06;;;;;;;10.88;5.47;;;;;;;;;;4349371;32;20124;-45
2021/03/31 09:59:33;;;;;;;6.72;4.47;;;;;;;;;;4374888;32;20424;-45
2021/03/31 10:02:02;;;;;;;10.48;6.22;;;;;;;;;;4375840;32;20562;-49
2021/03/31 10:04:33;;;;;;;7.25;4.70;;;;;;;;;;4376534;32;20543;-55
2021/03/31 10:07:14;;;;;;;10.80;3.83;;;;;;;;;;4376425;32;20121;-54
2021/03/31 10:09:47;;;;;;;;;;;;;;;;;;4377047;32;20117;-51
2021/03/31 10:12:22;;;;;;;9.52;4.55;;;;;;;;;;4377955;32;19983;-48
2021/03/31 10:14:56;;;;;;;7.95;5.35;;;;;;;;;;4376922;32;20185;-52
2021/03/31 10:17:26;;;;;;;11.10;4.90;;;;;;;;;;4378112;32;20109;-49
2021/03/31 10:20:20;;;;;;;11.05;4.65;;;;;;;;;;4376801;32;20577;-48
2021/03/31 10:22:58;;;;;;;8.07;4.45;;;;;;;;;;4376786;32;20109;-49
2021/03/31 10:25:31;;;;;;;9.38;4.37;;;;;;;;;;4369411;32;20113;-50
2021/03/31 10:28:00;;;;;;;8.68;4.90;;;;;;;;;;4363051;32;20101;-49
2021/03/31 10:30:31;;;;;;;5.80;4.50;;;;;;;;;;4363109;32;20098;-50
2021/03/31 10:32:57;;;;;;;10.82;5.40;;;;;;;;;;4362771;32;20102;-49
2021/03/31 10:35:44;;;;;;;8.85;4.18;;;;;;;;;;4361584;32;20179;-52
2021/03/31 10:38:22;;;;;;;7.35;5.10;;;;;;;;;;4362932;32;20134;-50
2021/03/31 10:41:25;;;;;;;8.23;4.70;;;;;;;;;;4361392;32;20110;-50
2021/03/31 10:54:24;;;;;;;4.72;3.95;;;;;;;;;;4362848;32;20107;-49
2021/03/31 10:57:06;;;;;;;13.98;4.12;;;;;;;;;;4362813;32;20191;-47
2021/03/31 10:59:34;;;;;;;13.05;4.10;;;;;;;;;;4369429;32;20102;-49
2021/03/31 11:02:01;;;;;;;18.15;4.55;;;;;;;;;;4376181;32;20110;-47
2021/03/31 11:04:28;;;;;;;5.50;3.20;;;;;;;;;;4377789;32;20104;-49
2021/03/31 11:06:59;;;;;;;9.05;4.15;;;;;;;;;;4377620;32;20098;-48
2021/03/31 11:09:28;;;;;;;10.65;4.87;;;;;;;;;;4376236;32;20097;-50
2021/03/31 11:11:56;;;;;;;7.00;4.10;;;;;;;;;;4377536;32;20114;-50
2021/03/31 11:14:23;;;;;;;7.07;4.37;;;;;;;;;;4377350;32;20128;-49
2021/03/31 11:17:02;;;;;;;6.45;5.60;;;;;;;;;;4379775;32;20083;-47
2021/03/31 11:25:34;;;;;;;;;;;;;;;;;;4380159;32;20140;-50
2021/03/31 11:27:39;;;;;;;8.35;3.87;;;;;;;;;;4379669;32;20113;-49
2021/03/31 11:30:09;;;;;;;5.87;4.10;;;;;;;;;;4379544;32;20173;-49
2021/03/31 11:32:39;;;;;;;8.68;4.35;;;;;;;;;;4379641;32;20148;-50
2021/03/31 11:35:07;;;;;;;7.82;3.80;;;;;;;;;;4379664;32;20102;-50
2021/03/31 11:37:39;;;;;;;5.97;3.87;;;;;;;;;;4379623;32;20090;-48
2021/03/31 11:40:08;;;;;;;6.72;4.07;;;;;;;;;;4379759;32;20092;-48
2021/03/31 11:42:34;;;;;;;8.27;4.50;;;;;;;;;;4379495;32;20102;-50
2021/03/31 11:45:01;;;;;;;9.57;4.80;;;;;;;;;;4378205;32;20255;-48
2021/03/31 11:47:29;;;;;;;6.70;4.62;;;;;;;;;;4365598;32;20098;-48
2021/03/31 11:49:55;;;;;;;7.80;4.75;;;;;;;;;;4365839;32;20113;-47
2021/03/31 11:52:23;;;;;;;8.30;5.43;;;;;;;;;;4379092;32;20105;-49
2021/03/31 11:54:50;;;;;;;7.15;4.57;;;;;;;;;;4378120;32;20531;-47
2021/03/31 11:57:17;;;;;;;6.07;4.07;;;;;;;;;;4379299;32;20156;-46
2021/03/31 11:59:44;;;;;;;9.35;5.40;;;;;;;;;;4379345;32;20204;-47
2021/03/31 12:02:10;;;;;;;8.93;5.35;;;;;;;;;;4379299;32;20151;-50
2021/03/31 12:04:38;;;;;;;8.27;4.68;;;;;;;;;;4379367;32;20180;-51
2021/03/31 12:07:08;;;;;;;11.75;5.50;;;;;;;;;;4377926;32;20120;-48
2021/03/31 12:09:41;;;;;;;6.80;4.87;;;;;;;;;;4379476;32;20597;-48
2021/03/31 12:12:15;;;;;;;9.18;4.75;;;;;;;;;;4377646;32;20126;-50
2021/03/31 12:14:41;;;;;;;7.60;5.37;;;;;;;;;;4378000;32;20104;-46
2021/03/31 12:17:11;;;;;;;6.37;4.05;;;;;;;;;;4379257;32;20106;-50
2021/03/31 12:19:44;;;;;;;7.28;4.55;;;;;;;;;;4379320;32;20532;-49
2021/03/31 12:22:12;;;;;;;9.48;5.10;;;;;;;;;;4379130;32;20157;-50
2021/03/31 12:24:41;;;;;;;8.32;5.82;;;;;;;;;;4378729;32;20117;-51
2021/03/31 12:27:10;;;;;;;7.28;4.18;;;;;;;;;;4374522;32;20081;-52
2021/03/31 12:29:37;;;;;;;7.30;4.25;;;;;;;;;;4370711;32;20086;-52
2021/03/31 12:32:05;;;;;;;8.10;4.78;;;;;;;;;;4370724;32;20129;-54
2021/03/31 12:34:33;;;;;;;5.18;4.22;;;;;;;;;;4378900;32;20113;-48
2021/03/31 12:37:01;;;;;;;5.95;3.90;;;;;;;;;;4366419;32;20114;-49
2021/03/31 12:39:29;;;;;;;8.88;4.12;;;;;;;;;;4364157;32;20207;-47
2021/03/31 12:42:00;;;;;;;9.02;4.60;;;;;;;;;;4363967;32;20094;-47
2021/03/31 12:44:28;;;;;;;6.78;4.05;;;;;;;;;;4366628;32;20097;-49
2021/03/31 12:47:03;;;;;;;7.43;4.75;;;;;;;;;;4367778;32;20101;-48
2021/03/31 12:49:33;;;;;;;7.82;4.75;;;;;;;;;;4375672;32;20098;-52
2021/03/31 12:52:09;;;;;;;6.82;4.55;;;;;;;;;;4363855;32;20170;-48
2021/03/31 12:54:40;;;;;;;8.95;4.30;;;;;;;;;;4372289;32;20185;-51
2021/03/31 12:57:10;;;;;;;9.77;4.62;;;;;;;;;;4378932;32;20203;-57
2021/03/31 12:59:38;;;;;;;6.47;4.62;;;;;;;;;;4377588;32;20444;-52
2021/03/31 13:02:10;;;;;;;6.68;4.55;;;;;;;;;;4362508;32;20198;-50
2021/03/31 13:04:42;;;;;;;9.23;3.60;;;;;;;;;;4363851;32;20113;-52
2021/03/31 13:07:17;;;;;;;7.43;4.37;;;;;;;;;;4367622;32;20098;-52
2021/03/31 13:09:51;;;;;;;8.70;4.60;;;;;;;;;;4371042;32;20090;-54
2021/03/31 13:12:36;;;;;;;4.87;3.70;;;;;;;;;;4366488;32;20203;-56
2021/03/31 13:21:58;;;;;;;7.95;4.55;;;;;;;;;;4365586;32;20577;-53
2021/03/31 13:24:06;;;;;;;5.93;4.10;;;;;;;;;;4363787;32;20201;-49
2021/03/31 13:32:01;;;;;;;7.07;4.80;;;;;;;;;;4373159;32;20085;-55
2021/03/31 13:34:31;;;;;;;6.47;4.07;;;;;;;;;;4362975;32;20649;-48
2021/03/31 13:37:05;;;;;;;4.50;3.67;;;;;;;;;;4374748;32;20209;-50
2021/03/31 13:39:46;;;;;;;7.10;3.15;;;;;;;;;;4376221;32;20086;-46
2021/03/31 13:42:13;;;;;;;5.35;3.53;;;;;;;;;;4361808;32;20145;-47
2021/03/31 13:44:40;;;;;;;6.95;3.53;;;;;;;;;;4370880;32;20094;-52
2021/03/31 13:47:12;;;;;;;5.70;3.03;;;;;;;;;;4363524;32;20118;-50
2021/03/31 13:49:45;;;;;;;3.60;2.80;;;;;;;;;;4378384;32;20194;-47
2021/03/31 13:52:21;;;;;;;5.12;2.90;;;;;;;;;;4371392;32;20109;-50
2021/03/31 13:55:03;;;;;;;9.02;3.42;;;;;;;;;;4363415;32;20093;-54
2021/03/31 13:57:48;;;;;;;4.82;4.05;;;;;;;;;;4368644;32;20129;-49
2021/03/31 14:00:25;;;;;;;3.67;2.90;;;;;;;;;;4371120;32;20126;-47
2021/03/31 14:02:55;;;;;;;5.85;3.00;;;;;;;;;;4344347;32;20136;-46
2021/03/31 14:05:23;;;;;;;3.62;3.00;;;;;;;;;;4364418;32;20117;-48
2021/03/31 14:07:51;;;;;;;6.03;4.53;;;;;;;;;;4367705;32;20097;-54
2021/03/31 14:10:22;;;;;;;4.22;3.50;;;;;;;;;;4363014;32;20121;-50
2021/03/31 14:12:56;;;;;;;5.82;2.92;;;;;;;;;;4361651;32;20105;-49
2021/03/31 14:15:30;;;;;;;5.70;3.65;;;;;;;;;;4355064;32;20195;-49
2021/03/31 14:17:58;;;;;;;7.53;3.17;;;;;;;;;;4376324;32;20598;-52
2021/03/31 14:20:25;;;;;;;6.57;3.10;;;;;;;;;;4362883;32;20110;-49
2021/03/31 14:22:52;;;;;;;7.15;2.90;;;;;;;;;;4366834;32;20177;-52
2021/03/31 14:25:22;;;;;;;6.90;2.90;;;;;;;;;;4377781;32;20098;-53
2021/03/31 14:27:49;;;;;;;5.15;2.08;;;;;;;;;;4377755;32;20142;-49
2021/03/31 14:30:20;;;;;;;4.62;2.65;;;;;;;;;;4377848;32;20130;-47
2021/03/31 14:32:46;;;;;;;3.50;2.90;;;;;;;;;;4365687;32;20106;-49
2021/03/31 14:35:14;;;;;;;4.18;2.70;;;;;;;;;;4362888;32;20131;-50
2021/03/31 14:37:41;;;;;;;4.68;2.83;;;;;;;;;;4361595;32;20203;-55
2021/03/31 14:40:08;;;;;;;2.67;2.35;;;;;;;;;;4362906;32;20118;-53
2021/03/31 14:42:38;;;;;;;4.15;2.75;;;;;;;;;;4362876;32;20105;-50
2021/03/31 14:45:07;;;;;;;3.92;2.67;;;;;;;;;;4363034;32;20209;-46
2021/03/31 14:47:35;;;;;;;3.87;2.72;;;;;;;;;;4362520;32;20090;-51
2021/03/31 14:50:03;;;;;;;5.50;2.65;;;;;;;;;;4376642;32;20113;-47
2021/03/31 15:00:21;;;;;;;2.87;2.58;;;;;;;;;;4376168;32;20191;-50
2021/03/31 15:02:47;;;;;;;4.70;2.83;;;;;;;;;;4360562;32;20182;-45
2021/03/31 15:05:14;;;;;;;3.17;2.45;;;;;;;;;;4365022;32;20104;-45
2021/03/31 15:07:40;;;;;;;5.47;2.12;;;;;;;;;;4377488;32;20467;-49
2021/03/31 15:10:06;;;;;;;4.20;2.87;;;;;;;;;;4377205;32;20209;-48
2021/03/31 15:12:32;;;;;;;2.72;2.22;;;;;;;;;;4377217;32;20133;-50
2021/03/31 15:14:58;;;;;;;2.55;2.25;;;;;;;;;;4377420;32;20206;-54
2021/03/31 15:17:24;;;;;;;3.05;2.40;;;;;;;;;;4377329;32;20542;-52
2021/03/31 15:24:42;;;;;;;4.40;2.92;;;;;;;;;;4377312;32;20117;-47
2021/03/31 15:27:09;;;;;;;3.25;2.35;;;;;;;;;;4377418;32;20113;-46
2021/03/31 15:29:35;;;;;;;4.70;2.53;;;;;;;;;;4377282;32;20125;-50
2021/03/31 15:32:03;;;;;;;5.32;2.47;;;;;;;;;;4373382;32;20118;-56
2021/03/31 15:34:30;;;;;;;3.90;2.70;;;;;;;;;;4376438;32;20113;-49
2021/03/31 15:36:58;;;;;;;2.53;1.92;;;;;;;;;;4376431;32;20106;-48
2021/03/31 15:39:25;;;;;;;4.60;2.42;;;;;;;;;;4376247;32;20124;-50
2021/03/31 15:41:58;;;;;;;4.65;2.20;;;;;;;;;;4376883;32;20531;-53
2021/03/31 15:44:35;;;;;;;4.53;2.30;;;;;;;;;;4377072;32;20122;-50
2021/03/31 15:49:41;;;;;;;3.28;2.17;;;;;;;;;;4376962;32;20536;-47
2021/03/31 15:52:16;;;;;;;5.47;2.35;;;;;;;;;;4371048;32;20129;-49
2021/03/31 15:54:46;;;;;;;4.12;2.60;;;;;;;;;;4376793;32;20101;-48